This is the latest recevied weather packets stored in our database for station/object KK7MLS-13. If no packets are shown the sender has not sent any weather packets the latest 10 day(s).
| Time | Temp. | Humidity | Pressure | Rain* | Wind** | Luminosity | Snow |
|---|---|---|---|---|---|---|---|
| 1788303364 | 19.44° C | 63% | 1011.8 hPa | 0 mm | - | 112 W/m² | - |
| 1788303064 | 19.44° C | 65% | 1011.7 hPa | 0 mm | - | 114 W/m² | - |
| 1788302760 | 19.44° C | 64% | 1011.8 hPa | 0 mm | - | 68 W/m² | - |
| 1788302456 | 19.44° C | 64% | 1011.7 hPa | 0 mm | - | 82 W/m² | - |
| 1788302151 | 19.44° C | 66% | 1011.8 hPa | 0 mm | - | 98 W/m² | - |
| 1788301846 | 19.44° C | 65% | 1011.8 hPa | 0 mm | - | 103 W/m² | - |
| 1788301543 | 19.44° C | 64% | 1011.8 hPa | 0 mm | - | 126 W/m² | - |
| 1788301238 | 19.44° C | 66% | 1011.9 hPa | 0 mm | - | 148 W/m² | - |
| 1788300934 | 18.89° C | 67% | 1011.9 hPa | 0 mm | - | 117 W/m² | - |
| 1788300630 | 18.89° C | 67% | 1011.8 hPa | 0 mm | - | 96 W/m² | - |
| 1788300329 | 18.89° C | 70% | 1011.8 hPa | 0 mm | - | 99 W/m² | - |
| 1788300028 | 18.89° C | 69% | 1011.9 hPa | 0 mm | - | 74 W/m² | - |
| 1788299726 | 18.89° C | 69% | 1011.8 hPa | 0 mm | - | 47 W/m² | - |
| 1788299426 | 18.33° C | 68% | 1011.7 hPa | 0 mm | - | 63 W/m² | - |
| 1788299125 | 18.33° C | 70% | 1011.9 hPa | 0 mm | - | 112 W/m² | - |
| 1788298820 | 18.33° C | 69% | 1011.9 hPa | 0 mm | - | 64 W/m² | - |
| 1788298520 | 18.89° C | 68% | 1012 hPa | 0 mm | - | 37 W/m² | - |
| 1788298214 | 18.89° C | 68% | 1011.8 hPa | 0 mm | - | 43 W/m² | - |
| 1788297914 | 18.89° C | 67% | 1011.7 hPa | 0 mm | - | 38 W/m² | - |
| 1788297611 | 18.89° C | 68% | 1011.7 hPa | 0 mm | - | 79 W/m² | - |
| 1788297306 | 18.89° C | 70% | 1011.7 hPa | 0 mm | - | 129 W/m² | - |
| 1788297002 | 18.33° C | 71% | 1011.7 hPa | 0 mm | - | 131 W/m² | - |
| 1788296697 | 18.33° C | 69% | 1012 hPa | 0 mm | - | 59 W/m² | - |
| 1788296393 | 18.33° C | 69% | 1011.7 hPa | 0 mm | - | 52 W/m² | - |
| 1788296089 | 18.33° C | 69% | 1011.8 hPa | 0 mm | - | 77 W/m² | - |
* Rain latest hour (hover to see other rain measurements)
** Current wind speed in m/s (hover to see current wind gust speed)